Joshua, Illinois
Current Conditions -  °F | °C
As of 7:35 PM on Friday 28 Nov 2014 (Local Time) from KGBG Reporting Station
Clear Clear  
Wind Chill: 28°   Ceiling: Unl
Heat Index: 35°   Visibility: 10mi
Dew Point: 32°   Wind: 8mph
Humidity: 89%   Direction: 140°SE
Pressure: 29.86"   Gusts: NA
Location:  40.6688°N, 90.1616°W
Report Text: KGBG 290135Z AUTO 14007KT 10SM CLR 02/00 A2986 RMK AO2 T00151001
Loading
Personal Weather Stations






























Interactive Weather Map New forecast layout! Learn more

10-Day Weather Forecast

Advertisements
Track Severe Weather on mobile